Time;durP1;ratioP1;P1;durP2;ratioP2;P2;SDS_P1;SDS_P2;PMS_P1;PMS_P2;Temp;Humidity;BMP_temperature;BMP_pressure;BME280_temperature;BME280_humidity;BME280_pressure;Samples;Min_cycle;Max_cycle;Signal;HPM_P1;HPM_P2
2022/11/04 00:01:58;;;;;;;30.77;20.13;;;;;;;;;;5122520;27;20493;-84
2022/11/04 00:04:43;;;;;;;24.02;18.45;;;;;;;;;;5120484;27;20030;-84
2022/11/04 00:13:34;;;;;;;24.83;17.63;;;;;;;;;;5136034;27;20050;-84
2022/11/04 00:19:23;;;;;;;20.42;15.68;;;;;;;;;;5135484;27;20046;-84
2022/11/04 00:34:23;;;;;;;10.03;7.67;;;;;;;;;;5122404;27;20513;-84
2022/11/04 00:37:08;;;;;;;9.48;6.18;;;;;;;;;;5135254;27;20120;-84
2022/11/04 00:39:53;;;;;;;9.15;5.68;;;;;;;;;;5135487;27;20030;-84
2022/11/04 00:42:38;;;;;;;7.28;4.80;;;;;;;;;;5133638;27;20043;-83
2022/11/04 00:45:22;;;;;;;5.75;4.03;;;;;;;;;;5124449;27;20046;-85
2022/11/04 00:48:07;;;;;;;5.07;3.72;;;;;;;;;;5119624;27;20468;-84
2022/11/04 00:50:52;;;;;;;4.68;3.40;;;;;;;;;;5119698;27;20536;-84
2022/11/04 00:53:37;;;;;;;4.40;2.90;;;;;;;;;;5119501;27;20061;-84
2022/11/04 00:56:21;;;;;;;4.78;3.08;;;;;;;;;;5134558;27;20123;-84
2022/11/04 00:59:06;;;;;;;5.25;3.75;;;;;;;;;;5135161;27;20084;-84
2022/11/04 01:01:51;;;;;;;5.80;3.35;;;;;;;;;;5119260;27;20086;-84
2022/11/04 01:04:35;;;;;;;6.22;3.40;;;;;;;;;;5118910;27;20087;-84
2022/11/04 01:07:20;;;;;;;7.60;3.17;;;;;;;;;;5134416;27;20099;-85
2022/11/04 01:10:05;;;;;;;4.80;3.05;;;10.60;99.90;;;;;;5119272;27;20387;-84
2022/11/04 01:12:51;;;;;;;4.13;2.22;;;10.70;99.90;;;;;;5119189;27;20486;-85
2022/11/04 01:15:36;;;;;;;7.10;2.92;;;10.70;99.90;;;;;;5118724;27;20038;-84
2022/11/04 01:18:21;;;;;;;10.77;2.40;;;;;;;;;;5109305;27;20050;-84
2022/11/04 01:21:07;;;;;;;3.63;2.20;;;10.70;99.90;;;;;;5119150;27;20087;-84
2022/11/04 01:23:52;;;;;;;3.92;1.83;;;;;;;;;;5119162;27;20034;-85
2022/11/04 01:26:36;;;;;;;5.28;2.17;;;10.70;99.90;;;;;;5118428;27;20054;-84
2022/11/04 01:29:21;;;;;;;4.47;1.90;;;;;;;;;;5121801;27;20118;-84
2022/11/04 01:32:05;;;;;;;4.90;1.83;;;;;;;;;;5118555;27;20100;-84
2022/11/04 01:34:50;;;;;;;7.00;1.77;;;;;;;;;;5118980;27;20092;-83
2022/11/04 01:37:34;;;;;;;2.35;1.25;;;;;;;;;;5118164;27;20038;-84
2022/11/04 01:40:19;;;;;;;3.78;1.48;;;;;;;;;;5118129;27;20079;-84
2022/11/04 01:43:04;;;;;;;2.22;1.10;;;;;;;;;;5128980;27;20399;-83
2022/11/04 01:45:57;;;;;;;4.40;1.10;;;10.10;99.90;;;;;;5127788;27;20084;-83
2022/11/04 01:48:42;;;;;;;3.67;1.40;;;;;;;;;;5122918;27;20064;-83
2022/11/04 01:51:28;;;;;;;1.67;0.95;;;10.60;99.90;;;;;;5117993;27;20118;-84
2022/11/04 01:54:13;;;;;;;11.65;2.30;;;;;;;;;;5118633;27;20099;-84
2022/11/04 01:57:01;;;;;;;4.22;0.98;;;10.50;99.90;;;;;;5133962;27;20115;-84
2022/11/04 01:59:46;;;;;;;4.13;1.10;;;;;;;;;;5133811;27;20037;-84
2022/11/04 02:02:31;;;;;;;4.53;1.15;;;10.50;99.90;;;;;;5133319;27;20054;-85
2022/11/04 02:05:16;;;;;;;1.77;0.90;;;;;;;;;;5118185;27;20034;-84
2022/11/04 02:08:03;;;;;;;3.88;1.20;;;10.50;99.90;;;;;;5133525;27;20086;-84
2022/11/04 02:10:53;;;;;;;6.90;1.40;;;10.50;99.90;;;;;;5118201;27;20029;-84
2022/11/04 02:13:37;;;;;;;4.15;1.20;;;;;;;;;;5133128;27;20029;-85
2022/11/04 02:16:39;;;;;;;11.60;2.20;;;10.50;99.90;;;;;;5117947;27;20076;-84
2022/11/04 02:19:45;;;;;;;2.20;1.02;;;10.70;99.90;;;;;;5107571;27;20612;-84
2022/11/04 02:22:42;;;;;;;5.03;1.23;;;10.50;99.90;;;;;;5120545;27;20053;-84
2022/11/04 02:25:26;;;;;;;8.75;1.10;;;;;;;;;;5132933;27;20528;-85
2022/11/04 02:28:42;;;;;;;7.45;1.10;;;10.50;99.90;;;;;;5111291;28;20051;-84
2022/11/04 02:31:43;;;;;;;4.72;1.20;;;10.50;99.90;;;;;;5113836;27;20058;-84
2022/11/04 02:35:10;;;;;;;3.97;0.98;;;10.40;99.90;;;;;;5114801;27;20473;-84
2022/11/04 02:37:54;;;;;;;5.20;1.35;;;;;;;;;;5097651;27;20042;-84
2022/11/04 02:40:39;;;;;;;8.90;1.13;;;;;;;;;;5117095;28;20042;-84
2022/11/04 02:43:49;;;;;;;4.28;0.90;;;10.40;99.90;;;;;;5117706;27;20063;-84
2022/11/04 02:46:46;;;;;;;5.78;0.90;;;10.30;99.90;;;;;;5124042;28;20602;-84
2022/11/04 02:50:12;;;;;;;4.63;1.00;;;10.40;99.90;;;;;;5132808;28;20042;-84
2022/11/04 02:53:13;;;;;;;3.53;1.10;;;10.40;99.90;;;;;;5103047;28;20104;-84
2022/11/04 02:55:59;;;;;;;4.85;0.98;;;10.50;99.90;;;;;;5133035;28;20485;-84
2022/11/04 02:58:58;;;;;;;1.65;0.82;;;10.60;99.90;;;;;;5117372;28;20116;-84
2022/11/04 03:01:45;;;;;;;1.63;0.80;;;10.50;99.90;;;;;;5096844;28;20038;-83
2022/11/04 03:04:36;;;;;;;4.00;1.23;;;10.50;99.90;;;;;;5131407;28;20070;-84
2022/11/04 03:07:26;;;;;;;3.47;0.85;;;10.40;99.90;;;;;;5132614;28;20551;-85
2022/11/04 03:10:39;;;;;;;3.70;0.90;;;10.50;99.90;;;;;;5133174;28;20099;-83
2022/11/04 03:14:06;;;;;;;3.22;0.90;;;10.50;99.90;;;;;;5117551;28;20152;-84
2022/11/04 03:16:58;;;;;;;7.05;1.75;;;10.50;99.90;;;;;;5049060;28;20044;-84
2022/11/04 03:19:55;;;;;;;2.28;0.90;;;10.40;99.90;;;;;;5063214;28;20079;-85
2022/11/04 03:22:40;;;;;;;3.03;1.00;;;;;;;;;;5126626;28;20042;-85
2022/11/04 03:25:42;;;;;;;4.00;1.48;;;10.40;99.90;;;;;;5132859;28;20489;-85
2022/11/04 03:28:52;;;;;;;2.78;1.13;;;10.40;99.90;;;;;;5131275;28;20399;-85
2022/11/04 03:31:47;;;;;;;4.65;2.05;;;10.40;99.90;;;;;;5132276;28;20055;-85
2022/11/04 03:34:32;;;;;;;3.00;1.08;;;;;;;;;;5132661;28;20038;-85
2022/11/04 03:37:17;;;;;;;2.92;1.63;;;;;;;;;;5104987;28;20450;-85
2022/11/04 03:40:02;;;;;;;4.00;1.25;;;;;;;;;;5132625;28;20057;-85
2022/11/04 03:43:09;;;;;;;5.57;1.30;;;11.20;99.90;;;;;;5118769;27;20122;-85
2022/11/04 03:45:54;;;;;;;3.42;1.10;;;10.40;99.90;;;;;;5136021;27;20657;-85
2022/11/04 03:48:40;;;;;;;6.28;1.35;;;;;;;;;;5135813;27;20092;-84
2022/11/04 03:51:25;;;;;;;4.78;1.20;;;;;;;;;;5120875;27;20084;-85
2022/11/04 03:54:10;;;;;;;3.63;1.42;;;;;;;;;;5120799;27;20085;-85
2022/11/04 03:57:13;;;;;;;2.67;1.20;;;10.50;99.90;;;;;;5135634;27;20646;-85
2022/11/04 04:00:14;;;;;;;3.92;1.30;;;10.30;99.90;;;;;;5135701;27;20390;-85
2022/11/04 04:03:14;;;;;;;3.75;1.05;;;10.30;99.90;;;;;;5103263;28;20039;-84
2022/11/04 04:06:11;;;;;;;8.80;1.67;;;10.40;99.90;;;;;;5105886;27;20050;-85
2022/11/04 04:09:06;;;;;;;3.42;1.30;;;10.40;99.90;;;;;;5135459;27;20375;-85
2022/11/04 04:12:04;;;;;;;3.90;1.75;;;10.30;99.90;;;;;;5135546;27;20034;-84
2022/11/04 04:14:56;;;;;;;5.90;1.58;;;10.40;99.90;;;;;;5119989;27;20083;-85
2022/11/04 04:17:55;;;;;;;3.65;1.05;;;10.50;99.90;;;;;;5119734;27;20551;-85
2022/11/04 04:20:41;;;;;;;5.93;1.15;;;10.40;99.90;;;;;;5135184;27;20114;-85
2022/11/04 04:29:38;;;;;;;2.70;1.30;;;;;;;;;;5135368;27;20398;-85
2022/11/04 04:32:27;;;;;;;4.35;1.17;;;10.30;99.90;;;;;;5120193;27;20403;-85
2022/11/04 04:47:43;;;;;;;3.03;0.98;;;10.40;99.90;;;;;;5123864;27;20555;-85
2022/11/04 04:50:32;;;;;;;1.60;0.63;;;10.10;99.90;;;;;;5135220;27;20444;-86
2022/11/04 04:53:17;;;;;;;6.03;2.65;;;;;;;;;;5134974;27;20088;-85
2022/11/04 04:56:01;;;;;;;2.95;0.65;;;;;;;;;;5104853;27;20057;-85
2022/11/04 04:58:46;;;;;;;6.93;0.70;;;;;;;;;;5134531;27;20034;-86
2022/11/04 05:01:31;;;;;;;2.50;0.70;;;;;;;;;;5135130;27;20074;-86
2022/11/04 05:04:15;;;;;;;1.73;0.60;;;;;;;;;;5134915;27;20526;-85
2022/11/04 05:07:00;;;;;;;1.05;0.50;;;;;;;;;;5118646;27;20505;-85
2022/11/04 05:09:44;;;;;;;3.78;1.08;;;;;;;;;;5111661;28;20061;-85
2022/11/04 05:13:24;;;;;;;1.23;0.60;;;;;;;;;;5116693;27;20026;-84
2022/11/04 05:15:34;;;;;;;2.92;0.80;;;;;;;;;;5134452;27;20497;-85
2022/11/04 05:18:19;;;;;;;2.92;0.80;;;;;;;;;;5119199;27;20046;-85
2022/11/04 05:21:10;;;;;;;5.93;1.65;;;9.80;99.90;;;;;;5118356;27;20038;-85
2022/11/04 05:23:55;;;;;;;4.05;0.95;;;;;;;;;;5118662;27;20395;-85
2022/11/04 05:26:40;;;;;;;5.88;1.00;;;;;;;;;;5134449;27;20031;-86
2022/11/04 05:29:24;;;;;;;6.97;2.15;;;;;;;;;;5134237;27;20083;-85
2022/11/04 05:32:09;;;;;;;3.70;0.95;;;;;;;;;;5134169;27;20526;-85
2022/11/04 05:34:53;;;;;;;4.47;0.90;;;;;;;;;;5101721;27;20407;-85
2022/11/04 05:37:38;;;;;;;1.77;0.65;;;;;;;;;;5109419;27;20046;-85
2022/11/04 05:40:23;;;;;;;7.20;1.20;;;9.70;99.90;;;;;;5104332;27;20509;-86
2022/11/04 05:43:07;;;;;;;9.85;1.00;;;;;;;;;;5118225;27;20099;-85
2022/11/04 05:45:52;;;;;;;1.63;0.73;;;;;;;;;;5133766;27;20038;-86
2022/11/04 05:48:36;;;;;;;3.00;1.20;;;;;;;;;;5104095;27;20046;-85
2022/11/04 05:51:23;;;;;;;2.90;1.00;;;9.70;99.90;;;;;;5134120;27;20038;-86
2022/11/04 05:54:08;;;;;;;3.38;0.88;;;;;;;;;;5118096;27;20104;-86
2022/11/04 05:56:52;;;;;;;3.70;1.15;;;;;;;;;;5103417;27;20061;-85
2022/11/04 05:59:37;;;;;;;3.90;1.20;;;;;;;;;;5118324;27;20543;-85
2022/11/04 06:02:21;;;;;;;4.55;1.33;;;;;;;;;;5118200;27;20079;-86
2022/11/04 06:05:06;;;;;;;3.53;1.35;;;9.70;99.90;;;;;;5133353;27;20030;-86
2022/11/04 06:07:51;;;;;;;5.00;1.55;;;;;;;;;;5118183;27;20049;-85
2022/11/04 06:10:35;;;;;;;3.50;1.10;;;;;;;;;;5117978;27;20080;-85
2022/11/04 06:13:20;;;;;;;7.30;1.85;;;;;;;;;;5118336;27;20044;-86
2022/11/04 06:16:04;;;;;;;3.25;1.08;;;9.40;99.90;;;;;;5103132;27;20042;-85
2022/11/04 06:18:50;;;;;;;3.55;1.40;;;;;;;;;;5103786;27;20080;-85
2022/11/04 06:21:37;;;;;;;4.72;1.10;;;;;;;;;;5118001;27;20084;-86
2022/11/04 06:24:22;;;;;;;2.17;1.05;;;;;;;;;;5117890;27;20382;-86
2022/11/04 06:27:07;;;;;;;4.50;1.20;;;;;;;;;;5133008;27;20046;-86
2022/11/04 06:29:52;;;;;;;2.67;1.00;;;;;;;;;;5133442;27;20066;-86
2022/11/04 06:32:37;;;;;;;3.08;1.30;;;;;;;;;;5117753;27;20489;-86
2022/11/04 06:35:22;;;;;;;2.58;1.13;;;;;;;;;;5111108;28;20077;-87
2022/11/04 06:38:06;;;;;;;5.40;1.10;;;;;;;;;;5110541;27;20064;-85
2022/11/04 06:40:51;;;;;;;7.82;1.10;;;;;;;;;;5123445;27;20034;-86
2022/11/04 06:43:35;;;;;;;4.57;1.27;;;;;;;;;;5126250;27;20031;-86
2022/11/04 06:46:27;;;;;;;6.68;1.40;;;9.00;99.90;;;;;;5127831;27;20477;-86
2022/11/04 06:49:14;;;;;;;3.08;1.10;;;9.00;99.90;;;;;;5132877;27;20042;-86
2022/11/04 06:51:59;;;;;;;1.98;1.00;;;;;;;;;;5116902;27;20081;-86
2022/11/04 06:54:46;;;;;;;5.57;1.10;;;;;;;;;;5136055;27;20029;-86
2022/11/04 06:57:31;;;;;;;2.45;1.00;;;;;;;;;;5104962;28;20176;-86
2022/11/04 07:00:16;;;;;;;2.90;1.00;;;;;;;;;;5112781;28;20035;-86
2022/11/04 07:03:01;;;;;;;4.65;1.13;;;;;;;;;;5115351;27;20149;-85
2022/11/04 07:05:45;;;;;;;1.98;0.98;;;;;;;;;;5121524;27;20034;-86
2022/11/04 07:08:30;;;;;;;2.70;1.10;;;;;;;;;;5116639;27;20101;-86
2022/11/04 07:11:17;;;;;;;7.13;1.27;;;9.00;99.90;;;;;;5132280;27;20490;-85
2022/11/04 07:14:01;;;;;;;4.53;1.10;;;;;;;;;;5137446;27;20077;-85
2022/11/04 07:16:50;;;;;;;3.10;1.08;;;9.00;99.90;;;;;;5135901;27;20061;-85
2022/11/04 07:19:34;;;;;;;5.55;1.20;;;;;;;;;;5138376;27;20500;-82
2022/11/04 07:22:19;;;;;;;5.60;1.00;;;;;;;;;;5122394;27;20060;-85
2022/11/04 07:25:04;;;;;;;3.60;1.02;;;;;;;;;;5149438;27;20038;-84
2022/11/04 07:27:48;;;;;;;4.70;1.38;;;;;;;;;;5132450;27;20038;-86
2022/11/04 07:30:33;;;;;;;2.53;1.13;;;;;;;;;;5136570;27;20489;-84
2022/11/04 07:33:18;;;;;;;6.05;1.30;;;;;;;;;;5146807;27;20084;-84
2022/11/04 07:36:04;;;;;;;5.65;1.17;;;9.00;99.90;;;;;;5111504;27;20042;-85
2022/11/04 07:38:48;;;;;;;3.63;1.30;;;;;;;;;;5126388;27;20042;-84
2022/11/04 07:41:33;;;;;;;5.80;1.50;;;;;;;;;;5120876;27;20042;-84
2022/11/04 07:44:18;;;;;;;3.42;1.50;;;;;;;;;;5120608;27;20403;-84
2022/11/04 07:47:02;;;;;;;5.03;1.60;;;;;;;;;;5106535;27;20050;-85
2022/11/04 07:49:47;;;;;;;5.63;1.75;;;;;;;;;;5121149;27;20084;-83
2022/11/04 07:52:31;;;;;;;6.50;1.70;;;;;;;;;;5136093;27;20095;-83
2022/11/04 07:55:17;;;;;;;8.98;1.73;;;9.20;99.90;;;;;;5135733;27;20038;-83
2022/11/04 07:58:03;;;;;;;3.58;1.75;;;;;;;;;;5136382;27;20041;-83
2022/11/04 08:00:48;;;;;;;4.57;1.85;;;;;;;;;;5120622;27;20087;-84
2022/11/04 08:03:33;;;;;;;4.20;1.90;;;9.30;99.90;;;;;;5136001;27;20395;-83
2022/11/04 08:06:19;;;;;;;3.60;1.80;;;9.30;99.90;;;;;;5135768;27;20058;-83
2022/11/04 08:09:03;;;;;;;4.10;1.77;;;;;;;;;;5120399;27;20034;-83
2022/11/04 08:11:48;;;;;;;3.95;1.80;;;;;;;;;;5120640;27;20083;-84
2022/11/04 08:14:33;;;;;;;4.25;1.73;;;;;;;;;;5120223;27;20074;-83
2022/11/04 08:17:18;;;;;;;6.03;2.05;;;;;;;;;;5119937;27;20070;-83
2022/11/04 08:20:04;;;;;;;5.78;2.08;;;;;;;;;;5106207;27;20061;-86
2022/11/04 08:22:49;;;;;;;5.32;1.77;;;;;;;;;;5120198;27;20049;-83
2022/11/04 08:25:33;;;;;;;5.55;1.70;;;;;;;;;;5135387;27;20567;-84
2022/11/04 08:28:18;;;;;;;5.05;1.98;;;;;;;;;;5134631;27;20407;-83
2022/11/04 08:31:02;;;;;;;3.42;1.75;;;;;;;;;;5135480;27;20100;-83
2022/11/04 08:33:47;;;;;;;3.38;1.80;;;;;;;;;;5120233;27;20490;-83
2022/11/04 08:36:35;;;;;;;4.28;1.60;;;9.90;99.90;;;;;;5105026;27;20410;-84
2022/11/04 08:39:19;;;;;;;3.97;1.58;;;;;;;;;;5119477;27;20034;-83
2022/11/04 08:42:05;;;;;;;3.90;1.67;;;;;;;;;;5119804;27;20038;-83
2022/11/04 08:44:52;;;;;;;4.38;2.00;;;10.20;99.90;;;;;;5120297;27;20539;-83
2022/11/04 08:47:38;;;;;;;6.13;1.77;;;10.50;99.90;;;;;;5107966;27;20402;-84
2022/11/04 08:50:26;;;;;;;4.20;1.40;;;;;;;;;;5134703;27;20126;-83
2022/11/04 08:53:11;;;;;;;3.15;1.45;;;;;;;;;;5120019;27;20042;-83
2022/11/04 08:55:56;;;;;;;3.88;1.40;;;;;;;;;;5135063;27;20034;-83
2022/11/04 08:58:41;;;;;;;8.45;2.45;;;;;;;;;;5119126;27;20107;-83
2022/11/04 09:01:26;;;;;;;3.45;1.52;;;11.40;99.90;;;;;;5104961;27;20505;-83
2022/11/04 09:04:12;;;;;;;2.92;1.25;;;;;;;;;;5119365;27;20501;-84
2022/11/04 09:06:57;;;;;;;1.85;0.90;;;;;;;;;;5105170;27;20093;-83
2022/11/04 09:09:42;;;;;;;5.18;1.73;;;;;;;;;;5101217;28;20038;-83
2022/11/04 09:12:27;;;;;;;2.05;0.80;;;;;;;;;;5131427;27;20033;-83
2022/11/04 09:15:11;;;;;;;4.57;1.20;;;;;;;;;;5134804;27;20069;-83
2022/11/04 09:17:56;;;;;;;3.75;1.15;;;;;;;;;;5134930;27;20038;-84
2022/11/04 09:20:41;;;;;;;2.40;1.02;;;;;;;;;;5134090;27;20569;-83
2022/11/04 09:23:25;;;;;;;3.90;1.08;;;;;;;;;;5134163;27;20136;-84
2022/11/04 09:26:13;;;;;;;3.55;1.05;;;13.30;99.90;;;;;;5119157;27;20163;-84
2022/11/04 09:28:58;;;;;;;3.00;1.40;;;;;;;;;;5134577;27;20046;-84
2022/11/04 09:31:43;;;;;;;2.63;1.10;;;;;;;;;;5118170;27;20130;-83
2022/11/04 09:34:27;;;;;;;3.58;1.30;;;;;;;;;;5118218;27;20038;-84
2022/11/04 09:37:12;;;;;;;5.47;1.52;;;;;;;;;;5120734;27;20103;-83
2022/11/04 09:39:56;;;;;;;2.67;1.10;;;;;;;;;;5129508;27;20114;-84
2022/11/04 09:42:58;;;;;;;4.47;1.23;;;13.90;99.90;;;;;;5118191;27;20399;-84
2022/11/04 09:45:43;;;;;;;3.58;1.02;;;13.80;99.90;;;;;;5133780;27;20087;-83
2022/11/04 09:48:32;;;;;;;5.22;1.20;;;13.50;99.90;;;;;;5133386;27;20046;-83
2022/11/04 09:51:21;;;;;;;3.45;0.90;;;13.30;99.90;;;;;;5118626;27;20551;-83
2022/11/04 09:54:22;;;;;;;3.55;1.40;;;13.20;99.90;;;;;;5133997;27;20034;-83
2022/11/04 09:57:15;;;;;;;2.60;1.30;;;12.90;99.90;;;;;;5117943;27;20042;-84
2022/11/04 10:00:00;;;;;;;4.10;1.20;;;;;;;;;;5135378;27;20053;-84
2022/11/04 10:03:13;;;;;;;3.08;1.10;;;12.90;99.90;;;;;;5119121;27;20034;-84
2022/11/04 10:06:04;;;;;;;4.53;1.43;;;13.00;99.90;;;;;;5135262;27;20050;-83
2022/11/04 10:09:16;;;;;;;3.50;1.13;;;12.60;99.90;;;;;;5135785;27;20103;-83
2022/11/04 10:12:12;;;;;;;3.47;1.02;;;12.60;99.90;;;;;;5120409;27;20075;-84
2022/11/04 10:15:18;;;;;;;2.15;1.05;;;12.60;99.90;;;;;;5130692;27;20053;-85
2022/11/04 10:18:28;;;;;;;5.55;1.00;;;12.50;99.90;;;;;;5116099;27;20568;-84
2022/11/04 10:21:46;;;;;;;4.80;1.50;;;12.40;99.90;;;;;;5132810;27;20394;-84
2022/11/04 10:24:39;;;;;;;6.75;1.50;;;12.50;99.90;;;;;;5116820;27;20517;-86
2022/11/04 10:27:31;;;;;;;2.95;1.30;;;12.70;99.90;;;;;;5117006;27;20391;-84
2022/11/04 10:30:21;;;;;;;3.40;1.35;;;12.80;99.90;;;;;;5115171;27;20379;-86
2022/11/04 10:33:19;;;;;;;6.82;1.70;;;12.90;99.90;;;;;;5123355;27;20054;-81
2022/11/04 10:36:09;;;;;;;4.55;1.77;;;12.90;99.90;;;;;;5116912;27;20039;-83
2022/11/04 10:38:56;;;;;;;3.38;1.40;;;12.90;99.90;;;;;;5119429;27;20038;-83
2022/11/04 10:41:40;;;;;;;3.95;1.50;;;;;;;;;;5132606;27;20111;-83
2022/11/04 10:44:28;;;;;;;4.68;1.45;;;12.80;99.90;;;;;;5117685;27;20591;-84
2022/11/04 10:47:13;;;;;;;7.63;1.50;;;;;;;;;;5117465;28;20046;-83
2022/11/04 10:50:25;;;;;;;5.30;1.48;;;12.80;99.90;;;;;;5117525;28;20060;-84
2022/11/04 10:53:22;;;;;;;4.82;1.38;;;12.80;99.90;;;;;;5132716;27;20042;-83
2022/11/04 10:56:16;;;;;;;4.25;1.80;;;12.80;99.90;;;;;;5117634;28;20074;-83
2022/11/04 10:59:15;;;;;;;4.10;1.70;;;12.60;99.90;;;;;;5132998;28;20060;-83
2022/11/04 11:02:01;;;;;;;4.97;1.95;;;12.60;99.90;;;;;;5117363;28;20107;-83
2022/11/04 11:04:46;;;;;;;3.60;1.70;;;;;;;;;;5102731;28;20164;-83
2022/11/04 11:07:35;;;;;;;11.65;2.38;;;12.40;99.90;;;;;;5132991;28;20159;-83
2022/11/04 11:10:20;;;;;;;6.63;2.30;;;;;;;;;;5133426;28;20042;-83
2022/11/04 11:13:22;;;;;;;6.72;2.60;;;12.30;99.90;;;;;;5133076;28;20115;-83
2022/11/04 11:16:27;;;;;;;5.25;2.22;;;12.30;99.90;;;;;;5132830;28;20106;-83
2022/11/04 11:19:12;;;;;;;6.15;1.70;;;;;;;;;;5117256;28;20034;-84
2022/11/04 11:21:57;;;;;;;4.05;1.70;;;;;;;;;;5116920;28;20062;-83
2022/11/04 11:24:42;;;;;;;4.05;1.75;;;;;;;;;;5132379;28;20443;-83
2022/11/04 11:27:26;;;;;;;6.20;1.90;;;;;;;;;;5132716;28;20087;-83
2022/11/04 11:30:30;;;;;;;5.47;1.60;;;12.30;99.90;;;;;;5117502;28;20043;-83
2022/11/04 11:33:28;;;;;;;;;;;12.30;99.90;;;;;;5117782;28;20402;-83
2022/11/04 11:36:15;;;;;;;;;;;12.30;99.90;;;;;;5119919;28;20275;-83
2022/11/04 11:39:04;;;;;;;;;;;12.90;99.90;;;;;;5120233;28;20274;-83
2022/11/04 11:41:48;;;;;;;;;;;12.60;99.90;;;;;;5132593;28;20325;-83
2022/11/04 11:44:43;;;;;;;;;;;12.70;99.90;;;;;;5133135;28;19914;-83
2022/11/04 11:47:27;;;;;;;;;;;12.80;99.90;;;;;;5117445;28;20007;-83
2022/11/04 11:50:14;;;;;;;;;;;12.80;99.90;;;;;;5132948;28;19914;-83
2022/11/04 11:53:15;;;;;;;;;;;12.90;99.90;;;;;;5132640;28;19948;-83
2022/11/04 11:56:42;;;;;;;;;;;12.90;99.90;;;;;;5117047;28;20049;-83
2022/11/04 11:59:45;;;;;;;;;;;12.80;99.90;;;;;;5035730;28;20264;-83
2022/11/04 12:02:50;;;;;;;;;;;12.60;99.90;;;;;;5131068;28;19914;-83
2022/11/04 12:05:40;;;;;;;;;;;12.40;99.90;;;;;;5136493;27;20267;-83
2022/11/04 12:08:24;;;;;;;;;;;12.80;99.90;;;;;;5120896;27;19922;-83
2022/11/04 12:11:21;;;;;;;;;;;12.00;99.90;;;;;;5121294;27;19914;-83
2022/11/04 12:14:10;;;;;;;;;;;11.80;99.90;;;;;;5135849;27;19914;-83
2022/11/04 12:17:03;;;;;;;;;;;11.70;99.90;;;;;;5135931;27;19914;-83
2022/11/04 12:19:55;;;;;;;;;;;11.60;99.90;;;;;;5135936;27;19952;-84
2022/11/04 12:22:48;;;;;;;;;;;11.50;99.90;;;;;;5136200;27;19966;-83
2022/11/04 12:25:44;;;;;;;;;;;11.50;99.90;;;;;;5136416;27;20323;-83
2022/11/04 12:28:47;;;;;;;;;;;11.40;99.90;;;;;;5120579;27;19960;-83
2022/11/04 12:31:38;;;;;;;;;;;11.50;99.90;;;;;;5136276;27;19926;-83
2022/11/04 12:34:30;;;;;;;;;;;11.50;99.90;;;;;;5135967;27;19914;-83
2022/11/04 12:37:29;;;;;;;;;;;11.60;99.90;;;;;;5123142;27;19991;-83
2022/11/04 12:40:20;;;;;;;;;;;11.70;99.90;;;;;;5120305;27;19913;-83
2022/11/04 12:43:04;;;;;;;;;;;11.70;99.90;;;;;;5119892;27;20415;-83
2022/11/04 12:45:51;;;;;;;;;;;11.70;99.90;;;;;;5119944;27;19914;-84
2022/11/04 12:48:54;;;;;;;;;;;11.70;99.90;;;;;;5135643;27;20072;-83
2022/11/04 12:51:53;;;;;;;;;;;11.60;99.90;;;;;;5120215;27;19914;-83
2022/11/04 12:54:51;;;;;;;;;;;11.60;99.90;;;;;;5126064;27;19952;-83
2022/11/04 12:57:40;;;;;;;;;;;11.40;99.90;;;;;;5120135;27;19914;-83
2022/11/04 13:00:26;;;;;;;;;;;11.40;99.90;;;;;;5135556;27;19914;-83
2022/11/04 13:03:15;;;;;;;;;;;11.40;99.90;;;;;;5119521;27;20072;-83
2022/11/04 13:05:59;;;;;;;;;;;11.30;99.90;;;;;;5135059;27;19945;-84
2022/11/04 13:08:53;;;;;;;;;;;11.30;99.90;;;;;;5119697;27;19963;-84
2022/11/04 13:11:42;;;;;;;;;;;11.30;99.90;;;;;;5135385;27;19930;-83
2022/11/04 13:14:28;;;;;;;;;;;11.30;99.90;;;;;;5119178;27;20420;-83
2022/11/04 13:17:14;;;;;;;;;;;11.60;99.90;;;;;;5134619;27;19917;-83
2022/11/04 13:20:12;;;;;;;;;;;11.30;99.90;;;;;;5134637;27;19919;-84
2022/11/04 13:22:59;;;;;;;;;;;11.30;99.90;;;;;;5134458;27;19914;-83
2022/11/04 13:25:44;;;;;;;;;;;11.30;99.90;;;;;;5135055;27;19914;-84
2022/11/04 13:28:28;;;;;;;;;;;11.40;99.90;;;;;;5134990;27;19968;-83
2022/11/04 13:31:26;;;;;;;;;;;12.10;99.90;;;;;;5134075;27;20043;-83
2022/11/04 13:34:17;;;;;;;;;;;11.90;99.90;;;;;;5134493;27;20161;-83
2022/11/04 13:37:08;;;;;;;;;;;12.50;99.90;;;;;;5104366;27;19915;-84
2022/11/04 13:39:55;;;;;;;;;;;12.50;99.90;;;;;;5119099;27;19979;-84
2022/11/04 13:46:12;;;;;;;;;;;12.90;99.90;;;;;;5112430;27;19933;-83
2022/11/04 13:49:14;;;;;;;;;;;13.00;99.90;;;;;;5118428;27;20014;-84
2022/11/04 13:52:02;;;;;;;;;;;13.10;99.90;;;;;;5118456;27;19918;-83
2022/11/04 13:54:49;;;;;;;;;;;13.10;99.90;;;;;;5134727;27;20337;-83
2022/11/04 13:57:48;;;;;;;;;;;13.00;99.90;;;;;;5118922;27;19914;-83
2022/11/04 14:00:33;;;;;;;;;;;12.90;99.90;;;;;;5134336;27;19946;-83
2022/11/04 14:03:26;;;;;;;;;;;12.70;99.90;;;;;;5118370;27;19982;-83
2022/11/04 14:06:10;;;;;;;;;;;12.70;99.90;;;;;;5118315;27;20035;-83
2022/11/04 14:09:22;;;;;;;;;;;12.60;99.90;;;;;;5134485;27;19922;-83
2022/11/04 14:12:09;;;;;;;;;;;12.50;99.90;;;;;;5118117;27;19956;-84
2022/11/04 14:15:06;;;;;;;;;;;12.40;99.90;;;;;;5118668;27;19956;-83
2022/11/04 14:17:50;;;;;;;;;;;12.40;99.90;;;;;;5118438;27;19998;-83
2022/11/04 14:20:35;;;;;;;;;;;12.30;99.90;;;;;;5133914;27;19914;-84
2022/11/04 14:23:22;;;;;;;;;;;12.20;99.90;;;;;;5118101;27;20016;-83
2022/11/04 14:26:16;;;;;;;;;;;12.10;99.90;;;;;;5132986;27;19929;-83
2022/11/04 14:29:03;;;;;;;;;;;12.10;99.90;;;;;;5133601;27;19921;-84
2022/11/04 14:31:50;;;;;;;;;;;12.00;99.90;;;;;;5133861;27;19964;-83
2022/11/04 14:34:36;;;;;;;;;;;11.80;99.90;;;;;;5133888;27;19922;-83
2022/11/04 14:37:24;;;;;;;;;;;11.90;99.90;;;;;;5121326;27;19976;-83
2022/11/04 14:40:24;;;;;;;;;;;11.80;99.90;;;;;;5133087;27;20374;-83
2022/11/04 14:43:16;;;;;;;;;;;11.80;99.90;;;;;;5133343;27;19915;-83
2022/11/04 14:46:01;;;;;;;;;;;11.70;99.90;;;;;;5118174;27;20439;-83
2022/11/04 14:48:50;;;;;;;;;;;11.60;99.90;;;;;;5117871;28;19971;-84
2022/11/04 14:51:39;;;;;;;;;;;11.60;99.90;;;;;;5118803;28;19977;-83
2022/11/04 14:54:24;;;;;;;;;;;11.50;99.90;;;;;;5117566;28;19911;-84
2022/11/04 14:57:15;;;;;;;;;;;11.40;99.90;;;;;;5117510;28;19914;-83
2022/11/04 15:00:16;;;;;;;;;;;11.30;99.90;;;;;;5133730;28;20288;-83
2022/11/04 15:03:11;;;;;;;;;;;11.20;99.90;;;;;;5133592;28;20339;-83
2022/11/04 15:05:59;;;;;;;;;;;11.10;99.90;;;;;;5133387;28;20286;-83
2022/11/04 15:08:44;;;;;;;;;;;11.00;99.90;;;;;;5117765;28;19922;-83
2022/11/04 15:14:31;;;;;;;;;;;10.80;99.90;;;;;;5119091;28;19919;-83
2022/11/04 15:17:17;;;;;;;;;;;10.70;99.90;;;;;;5132863;28;19919;-83
2022/11/04 15:20:03;;;;;;;;;;;10.70;99.90;;;;;;5133470;28;19954;-83
2022/11/04 15:22:47;;;;;;;;;;;10.60;99.90;;;;;;5133198;28;19914;-83
2022/11/04 15:25:32;;;;;;;;;;;10.60;99.90;;;;;;5117507;28;19922;-83
2022/11/04 15:28:21;;;;;;;;;;;10.50;99.90;;;;;;5117284;28;19960;-83
2022/11/04 15:31:19;;;;;;;;;;;10.50;99.90;;;;;;5117724;28;19960;-82
2022/11/04 15:34:04;;;;;;;;;;;10.50;99.90;;;;;;5115918;27;19923;-83
2022/11/04 15:36:49;;;;;;;;;;;10.40;99.90;;;;;;5116520;28;20377;-83
2022/11/04 15:39:35;;;;;;;;;;;10.40;99.90;;;;;;5120910;27;19914;-83
2022/11/04 15:42:35;;;;;;;;;;;10.30;99.90;;;;;;5136735;27;20401;-83
2022/11/04 15:45:26;;;;;;;;;;;10.30;99.90;;;;;;5136527;27;19914;-83
2022/11/04 15:48:20;;;;;;;;;;;10.20;99.90;;;;;;5136794;27;19922;-85
2022/11/04 15:51:10;;;;;;;;;;;10.00;99.90;;;;;;5104590;28;19918;-82
2022/11/04 15:53:56;;;;;;;;;;;10.10;99.90;;;;;;5135611;27;19915;-83
2022/11/04 15:56:43;;;;;;;;;;;10.10;99.90;;;;;;5121344;27;19914;-83
2022/11/04 15:59:28;;;;;;;;;;;10.10;99.90;;;;;;5136318;27;20369;-83
2022/11/04 16:02:20;;;;;;;;;;;10.00;99.90;;;;;;5120521;27;20306;-84
2022/11/04 16:05:11;;;;;;;;;;;10.00;99.90;;;;;;5136854;27;19913;-83
2022/11/04 16:08:12;;;;;;;;;;;10.00;99.90;;;;;;5121084;27;19964;-82
2022/11/04 16:11:16;;;;;;;;;;;10.00;99.90;;;;;;5136527;27;20286;-83
2022/11/04 16:14:19;;;;;;;;;;;9.90;99.90;;;;;;5136394;27;19915;-82
2022/11/04 16:17:03;;;;;;;;;;;9.80;99.90;;;;;;5136653;27;19914;-82
2022/11/04 16:19:50;;;;;;;;;;;9.70;99.90;;;;;;5120947;27;19914;-83
2022/11/04 16:22:37;;;;;;;;;;;9.70;99.90;;;;;;5135697;27;19965;-83
2022/11/04 16:25:22;;;;;;;;;;;10.20;99.90;;;;;;5135898;27;19919;-83
2022/11/04 16:28:06;;;;;;;;;;;9.50;99.90;;;;;;5136316;27;19938;-83
2022/11/04 16:31:01;;;;;;;;;;;9.50;99.90;;;;;;5136089;27;19918;-83
2022/11/04 16:33:45;;;;;;;;;;;9.50;99.90;;;;;;5136089;27;20366;-83
2022/11/04 16:36:29;;;;;;;;;;;9.40;99.90;;;;;;5105315;27;19972;-83
2022/11/04 16:39:13;;;;;;;;;;;9.30;99.90;;;;;;5136194;27;20401;-82
2022/11/04 16:41:58;;;;;;;;;;;9.30;99.90;;;;;;5120353;27;19914;-83
2022/11/04 16:44:49;;;;;;;;;;;9.20;99.90;;;;;;5120182;27;20011;-82
2022/11/04 16:47:34;;;;;;;;;;;9.10;99.90;;;;;;5135303;27;19922;-83
2022/11/04 16:50:19;;;;;;;;;;;9.00;99.90;;;;;;5134267;27;19960;-83
2022/11/04 16:53:06;;;;;;;;;;;9.00;99.90;;;;;;5120455;27;19990;-83
2022/11/04 16:55:51;;;;;;;;;;;8.90;99.90;;;;;;5100435;28;19961;-83